Time;durP1;ratioP1;P1;durP2;ratioP2;P2;SDS_P1;SDS_P2;PMS_P1;PMS_P2;Temp;Humidity;BMP_temperature;BMP_pressure;BME280_temperature;BME280_humidity;BME280_pressure;Samples;Min_cycle;Max_cycle;Signal;HPM_P1;HPM_P2
2023/07/14 00:01:42;;;;;;;67.30;4.97;;;20.20;1.00;;;;;;5101596;28;20189;-81
2023/07/14 00:04:17;;;;;;;68.10;6.40;;;20.20;1.00;;;;;;5082442;28;20427;-81
2023/07/14 00:06:45;;;;;;;69.00;5.30;;;20.20;1.00;;;;;;5082640;28;20413;-81
2023/07/14 00:09:22;;;;;;;67.50;6.17;;;20.20;1.00;;;;;;5083424;28;20459;-81
2023/07/14 00:11:48;;;;;;;67.87;5.93;;;20.20;1.00;;;;;;5100737;28;20399;-81
2023/07/14 00:14:14;;;;;;;71.20;6.30;;;20.30;1.00;;;;;;5099779;28;20398;-81
2023/07/14 00:16:40;;;;;;;67.93;6.07;;;20.10;1.00;;;;;;5099011;28;20643;-81
2023/07/14 00:19:15;;;;;;;68.70;5.20;;;20.20;1.00;;;;;;5098732;28;20493;-81
2023/07/14 00:21:43;;;;;;;71.07;6.57;;;20.20;1.00;;;;;;5099564;28;20746;-81
2023/07/14 00:24:12;;;;;;;68.97;6.20;;;20.00;1.00;;;;;;5099153;28;20404;-81
2023/07/14 00:26:40;;;;;;;66.27;5.40;;;20.00;1.00;;;;;;5098784;28;20452;-81
2023/07/14 00:29:32;;;;;;;67.67;6.10;;;20.00;1.00;;;;;;5080590;28;20437;-82
2023/07/14 00:31:58;;;;;;;69.00;5.27;;;20.10;1.00;;;;;;5098477;28;20387;-81
2023/07/14 00:34:24;;;;;;;67.00;5.50;;;20.00;1.00;;;;;;5098477;28;20407;-81
2023/07/14 00:36:51;;;;;;;69.43;5.23;;;20.10;1.00;;;;;;5080634;28;20542;-81
2023/07/14 00:39:17;;;;;;;70.90;5.73;;;20.00;1.00;;;;;;5098621;28;20441;-81
2023/07/14 00:41:44;;;;;;;69.27;6.07;;;20.00;1.00;;;;;;5080634;28;20434;-81
2023/07/14 00:44:13;;;;;;;67.57;5.50;;;20.00;1.00;;;;;;5098468;28;20422;-81
2023/07/14 00:46:39;;;;;;;67.87;5.43;;;19.90;1.00;;;;;;5098292;28;20745;-81
2023/07/14 00:49:12;;;;;;;72.70;7.87;;;20.10;1.00;;;;;;5098400;28;20479;-81
2023/07/14 00:51:39;;;;;;;71.00;5.67;;;20.10;1.00;;;;;;5080210;28;20185;-81
2023/07/14 00:54:21;;;;;;;67.50;5.60;;;20.10;1.00;;;;;;5098172;28;20413;-81
2023/07/14 00:56:49;;;;;;;65.70;4.90;;;20.10;1.00;;;;;;5097903;28;20500;-81
2023/07/14 00:59:17;;;;;;;66.53;5.60;;;20.10;1.00;;;;;;5099621;28;20459;-81
2023/07/14 01:02:15;;;;;;;66.83;5.17;;;20.10;1.00;;;;;;5100012;28;20409;-81
2023/07/14 01:04:47;;;;;;;68.73;6.70;;;20.10;1.00;;;;;;5099978;28;20379;-81
2023/07/14 01:07:15;;;;;;;68.70;5.57;;;20.10;1.00;;;;;;5099828;28;20407;-81
2023/07/14 01:09:42;;;;;;;70.80;5.67;;;20.10;1.00;;;;;;5099226;28;20429;-81
2023/07/14 01:12:11;;;;;;;70.20;6.37;;;20.00;1.00;;;;;;5099757;28;20407;-81
2023/07/14 01:14:42;;;;;;;71.50;6.10;;;20.00;1.00;;;;;;5081018;28;20984;-81
2023/07/14 01:17:08;;;;;;;66.90;5.23;;;20.00;1.00;;;;;;5081543;28;20410;-81
2023/07/14 01:19:51;;;;;;;67.37;5.27;;;20.00;1.00;;;;;;5099039;28;20518;-81
2023/07/14 01:22:24;;;;;;;68.60;5.03;;;20.00;1.00;;;;;;5080656;28;20421;-81
2023/07/14 01:25:16;;;;;;;70.43;5.30;;;20.00;1.00;;;;;;5098876;28;20426;-81
2023/07/14 01:27:42;;;;;;;68.60;5.70;;;20.10;1.00;;;;;;5098623;28;20429;-81
2023/07/14 01:30:08;;;;;;;67.10;4.80;;;20.00;1.00;;;;;;5099254;28;20397;-81
2023/07/14 01:32:39;;;;;;;70.67;5.93;;;20.00;1.00;;;;;;5098742;28;20207;-81
2023/07/14 01:35:07;;;;;;;68.10;5.23;;;20.00;1.00;;;;;;5099110;28;20853;-81
2023/07/14 01:37:39;;;;;;;68.40;5.87;;;20.00;1.00;;;;;;5098604;28;20411;-81
2023/07/14 01:40:11;;;;;;;70.10;5.50;;;19.90;1.00;;;;;;5098663;28;20461;-81
2023/07/14 01:42:40;;;;;;;68.20;5.27;;;19.90;1.00;;;;;;5098452;28;20734;-81
2023/07/14 01:45:11;;;;;;;67.77;6.23;;;19.90;1.00;;;;;;5097444;28;20461;-81
2023/07/14 01:47:38;;;;;;;67.93;6.40;;;19.90;1.00;;;;;;5079221;28;20882;-81
2023/07/14 01:50:05;;;;;;;68.17;6.27;;;19.90;1.00;;;;;;5096715;28;20508;-81
2023/07/14 01:52:34;;;;;;;68.27;5.93;;;19.90;1.00;;;;;;5096654;28;20909;-81
2023/07/14 01:55:04;;;;;;;69.27;5.20;;;19.90;1.00;;;;;;5096621;28;20437;-81
2023/07/14 02:00:05;;;;;;;67.37;6.60;;;19.90;1.00;;;;;;5075590;28;20994;-79
2023/07/14 02:02:34;;;;;;;69.50;5.70;;;19.80;1.00;;;;;;5076981;28;20405;-79
2023/07/14 02:05:05;;;;;;;66.50;6.10;;;19.80;1.00;;;;;;5076602;28;20797;-79
2023/07/14 02:07:31;;;;;;;67.53;5.80;;;19.80;1.00;;;;;;5075239;28;20433;-79
2023/07/14 02:09:57;;;;;;;66.90;6.50;;;19.80;1.00;;;;;;5057109;28;20403;-79
2023/07/14 02:12:31;;;;;;;70.23;5.37;;;19.70;1.00;;;;;;5056470;28;20541;-79
2023/07/14 02:15:05;;;;;;;66.97;4.97;;;19.70;1.00;;;;;;5056833;28;20203;-79
2023/07/14 02:17:33;;;;;;;67.37;5.80;;;19.70;1.00;;;;;;5056344;28;20526;-80
2023/07/14 02:20:04;;;;;;;70.53;5.20;;;19.60;1.00;;;;;;5056684;28;20487;-80
2023/07/14 02:22:31;;;;;;;68.30;4.90;;;19.60;1.00;;;;;;5056852;28;20906;-80
2023/07/14 02:24:58;;;;;;;67.00;5.40;;;19.50;1.00;;;;;;5056366;28;20772;-80
2023/07/14 02:27:24;;;;;;;70.10;5.43;;;19.50;1.00;;;;;;5056346;28;20402;-80
2023/07/14 02:29:50;;;;;;;67.80;5.73;;;19.50;1.00;;;;;;5038627;28;20415;-80
2023/07/14 02:32:35;;;;;;;67.97;6.07;;;19.50;1.00;;;;;;5056565;28;20899;-79
2023/07/14 02:35:15;;;;;;;68.77;4.80;;;19.40;1.00;;;;;;5056695;28;20859;-79
2023/07/14 02:38:03;;;;;;;67.37;5.20;;;19.40;1.00;;;;;;5056816;28;22288;-79
2023/07/14 02:40:54;;;;;;;68.43;5.60;;;19.30;1.00;;;;;;5056595;28;20796;-79
2023/07/14 02:43:22;;;;;;;67.10;4.97;;;19.40;1.00;;;;;;5056791;28;20388;-80
2023/07/14 02:46:03;;;;;;;66.30;4.73;;;19.30;1.00;;;;;;5056368;28;20395;-79
2023/07/14 02:48:39;;;;;;;68.60;5.30;;;19.30;1.00;;;;;;5056178;28;20410;-79
2023/07/14 02:51:05;;;;;;;67.43;5.57;;;19.20;1.00;;;;;;5056286;28;20478;-79
2023/07/14 02:53:31;;;;;;;74.73;4.73;;;19.20;1.00;;;;;;5056013;28;20752;-79
2023/07/14 02:55:57;;;;;;;67.50;5.83;;;19.20;1.00;;;;;;5056580;28;20411;-79
2023/07/14 02:58:23;;;;;;;66.40;4.80;;;19.20;1.00;;;;;;5056752;28;20209;-79
2023/07/14 03:00:49;;;;;;;68.60;4.70;;;19.10;1.00;;;;;;5056017;28;20195;-79
2023/07/14 03:03:15;;;;;;;67.93;4.80;;;19.10;1.00;;;;;;5056071;28;20482;-80
2023/07/14 03:05:44;;;;;;;69.63;4.80;;;19.10;1.00;;;;;;5038213;28;20400;-80
2023/07/14 03:08:15;;;;;;;68.40;5.03;;;19.10;1.00;;;;;;5055892;28;20419;-80
2023/07/14 03:10:49;;;;;;;68.00;4.87;;;19.10;1.00;;;;;;5056443;28;20844;-80
2023/07/14 03:13:16;;;;;;;67.30;4.90;;;19.00;1.00;;;;;;5056046;28;20427;-79
2023/07/14 03:15:42;;;;;;;69.10;5.20;;;19.00;1.00;;;;;;5056219;28;20457;-80
2023/07/14 03:18:08;;;;;;;66.90;4.70;;;19.00;1.00;;;;;;5056091;28;20917;-80
2023/07/14 03:20:34;;;;;;;67.30;4.70;;;18.90;1.00;;;;;;5056038;28;20540;-80
2023/07/14 03:23:00;;;;;;;66.80;5.00;;;18.90;1.00;;;;;;5056026;28;20478;-80
2023/07/14 03:25:26;;;;;;;68.13;4.70;;;18.80;1.00;;;;;;5056146;28;20167;-80
2023/07/14 03:27:52;;;;;;;67.67;5.53;;;18.80;1.00;;;;;;5056047;28;20664;-79
2023/07/14 03:30:21;;;;;;;67.83;5.20;;;18.80;1.00;;;;;;5055924;28;20486;-80
2023/07/14 03:32:47;;;;;;;67.30;5.90;;;18.80;1.00;;;;;;5055541;28;20898;-80
2023/07/14 03:35:12;;;;;;;68.77;5.57;;;18.80;1.00;;;;;;5038099;28;20414;-80
2023/07/14 03:37:41;;;;;;;66.10;5.23;;;18.80;1.00;;;;;;5056242;28;20256;-80
2023/07/14 03:40:07;;;;;;;69.77;6.10;;;18.70;1.00;;;;;;5055904;28;20234;-79
2023/07/14 03:42:33;;;;;;;66.40;5.37;;;18.70;1.00;;;;;;5055606;28;20406;-79
2023/07/14 03:44:58;;;;;;;68.97;4.97;;;18.70;1.00;;;;;;5055430;28;20395;-79
2023/07/14 03:47:27;;;;;;;70.63;6.13;;;18.70;1.00;;;;;;5055852;28;20248;-79
2023/07/14 03:49:52;;;;;;;69.67;6.37;;;18.70;1.00;;;;;;5056215;28;20168;-79
2023/07/14 03:52:18;;;;;;;70.07;6.10;;;18.60;1.00;;;;;;5055166;28;20494;-79
2023/07/14 03:54:44;;;;;;;68.73;7.00;;;18.60;2.30;;;;;;5055578;28;20160;-79
2023/07/14 03:57:10;;;;;;;71.07;7.67;;;18.40;5.10;;;;;;5055814;28;20191;-80
2023/07/14 03:59:35;;;;;;;68.37;7.07;;;18.30;6.40;;;;;;5055412;28;20538;-79
2023/07/14 04:02:01;;;;;;;69.30;8.37;;;18.30;8.20;;;;;;5055055;28;20172;-79
2023/07/14 04:04:28;;;;;;;69.20;7.63;;;18.40;6.60;;;;;;5055375;28;20167;-79
2023/07/14 04:06:55;;;;;;;71.67;7.57;;;18.40;6.50;;;;;;5037427;28;20211;-80
2023/07/14 04:09:20;;;;;;;69.27;7.67;;;18.40;4.50;;;;;;5039197;28;20464;-80
2023/07/14 04:11:46;;;;;;;68.77;7.97;;;18.50;5.40;;;;;;5059328;28;20399;-79
2023/07/14 04:14:12;;;;;;;68.57;8.07;;;18.50;3.10;;;;;;5059491;28;20160;-79
2023/07/14 04:16:38;;;;;;;73.87;8.70;;;18.50;4.60;;;;;;5059247;28;20406;-79
2023/07/14 04:19:04;;;;;;;68.00;8.30;;;18.50;4.60;;;;;;5058631;28;20267;-79
2023/07/14 04:21:31;;;;;;;69.67;8.87;;;18.50;4.20;;;;;;5059715;28;20399;-79
2023/07/14 04:23:57;;;;;;;68.43;9.20;;;18.40;6.60;;;;;;5059156;28;20430;-79
2023/07/14 04:26:24;;;;;;;71.17;9.57;;;18.40;7.70;;;;;;5059256;28;20776;-79
2023/07/14 04:28:50;;;;;;;69.60;9.20;;;18.40;8.60;;;;;;5058777;28;20423;-79
2023/07/14 04:31:16;;;;;;;73.17;9.87;;;18.50;7.60;;;;;;5058564;28;20399;-79
2023/07/14 04:33:44;;;;;;;71.80;11.50;;;18.40;13.20;;;;;;5058481;28;20324;-80
2023/07/14 04:36:10;;;;;;;69.87;10.63;;;18.20;14.90;;;;;;5058984;28;20494;-79
2023/07/14 04:38:36;;;;;;;70.33;13.00;;;18.30;15.40;;;;;;5058159;28;20426;-80
2023/07/14 04:41:02;;;;;;;69.07;9.27;;;18.20;15.60;;;;;;5058947;28;20450;-79
2023/07/14 04:43:28;;;;;;;69.20;10.97;;;18.20;14.50;;;;;;5058452;28;20183;-80
2023/07/14 04:45:54;;;;;;;71.30;12.00;;;18.40;14.00;;;;;;5059093;28;20493;-80
2023/07/14 04:48:23;;;;;;;67.97;7.80;;;18.60;13.60;;;;;;5058801;28;20411;-79
2023/07/14 04:50:50;;;;;;;68.60;7.00;;;19.00;8.40;;;;;;5058562;28;20243;-80
2023/07/14 04:53:17;;;;;;;70.30;7.27;;;19.30;4.20;;;;;;5058590;28;20411;-79
2023/07/14 04:55:45;;;;;;;70.13;5.40;;;19.70;1.00;;;;;;5058305;28;20411;-79
2023/07/14 04:58:12;;;;;;;67.33;5.03;;;20.10;1.00;;;;;;5040675;28;20459;-79
2023/07/14 05:00:40;;;;;;;71.00;5.80;;;20.50;1.00;;;;;;5058331;28;20454;-80
2023/07/14 05:03:06;;;;;;;69.50;4.80;;;20.70;1.00;;;;;;5058470;28;20741;-79
2023/07/14 05:05:32;;;;;;;68.80;4.67;;;20.80;1.00;;;;;;5040106;28;20502;-80
2023/07/14 05:08:00;;;;;;;66.17;4.27;;;20.90;1.00;;;;;;5058171;28;20457;-80
2023/07/14 05:10:27;;;;;;;71.27;4.37;;;20.90;1.00;;;;;;5058544;28;20780;-80
2023/07/14 05:12:54;;;;;;;68.80;4.60;;;20.50;1.00;;;;;;5023568;28;20435;-80
2023/07/14 05:15:21;;;;;;;75.73;5.20;;;20.30;1.00;;;;;;5040262;28;20840;-80
2023/07/14 05:17:48;;;;;;;73.07;5.77;;;20.00;1.00;;;;;;5057346;28;20427;-79
2023/07/14 05:20:15;;;;;;;69.90;5.50;;;19.90;1.00;;;;;;5057554;28;20451;-80
2023/07/14 05:22:44;;;;;;;74.17;5.90;;;19.90;1.00;;;;;;5057667;28;20922;-79
2023/07/14 05:25:12;;;;;;;77.27;5.77;;;19.80;1.00;;;;;;5057444;28;20887;-80
2023/07/14 05:27:38;;;;;;;67.37;5.07;;;19.60;1.00;;;;;;5057122;28;20406;-80
2023/07/14 05:30:05;;;;;;;69.80;5.67;;;19.60;1.00;;;;;;5039668;28;20525;-80
2023/07/14 05:32:31;;;;;;;70.83;5.50;;;19.50;1.00;;;;;;5057176;28;20397;-79
2023/07/14 05:34:57;;;;;;;68.97;5.07;;;19.60;1.00;;;;;;5057530;28;20418;-78
2023/07/14 05:37:22;;;;;;;67.57;5.60;;;19.70;1.00;;;;;;5056920;28;20406;-79
2023/07/14 05:39:48;;;;;;;69.20;5.87;;;19.70;1.00;;;;;;5058917;28;20216;-79
2023/07/14 05:42:14;;;;;;;67.33;5.90;;;19.60;1.00;;;;;;5059550;28;20506;-79
2023/07/14 05:44:40;;;;;;;68.27;6.80;;;19.60;1.00;;;;;;5058015;28;20590;-79
2023/07/14 05:47:06;;;;;;;69.07;6.10;;;19.60;1.00;;;;;;5057009;28;20163;-79
2023/07/14 05:49:31;;;;;;;71.10;6.43;;;19.70;1.00;;;;;;5056961;28;20195;-79
2023/07/14 05:51:57;;;;;;;68.07;5.77;;;19.50;1.00;;;;;;5056685;28;20401;-79
2023/07/14 05:54:24;;;;;;;68.57;6.83;;;19.50;1.00;;;;;;5056850;28;20165;-79
2023/07/14 05:56:50;;;;;;;68.20;7.00;;;19.30;1.00;;;;;;5056864;28;20482;-79
2023/07/14 05:59:17;;;;;;;67.37;6.23;;;19.30;1.00;;;;;;5056054;28;20464;-79
2023/07/14 06:01:45;;;;;;;69.70;7.77;;;19.40;1.00;;;;;;5055455;28;20914;-79
2023/07/14 06:04:15;;;;;;;69.67;6.30;;;19.40;1.00;;;;;;5037568;28;20420;-79
2023/07/14 06:06:41;;;;;;;67.87;6.10;;;19.40;1.00;;;;;;5055350;28;20408;-79
2023/07/14 06:09:09;;;;;;;70.23;6.00;;;19.50;1.00;;;;;;5056353;28;20440;-79
2023/07/14 06:11:35;;;;;;;71.30;5.93;;;19.60;1.00;;;;;;5056830;28;20488;-79
2023/07/14 06:14:00;;;;;;;76.53;6.27;;;19.70;1.00;;;;;;5056983;28;20407;-79
2023/07/14 06:16:26;;;;;;;72.27;5.77;;;19.80;1.00;;;;;;5057294;28;20458;-79
2023/07/14 06:18:52;;;;;;;71.07;6.67;;;19.80;1.00;;;;;;5057140;28;20204;-79
2023/07/14 06:21:18;;;;;;;69.60;6.20;;;19.70;1.00;;;;;;5038954;28;20165;-79
2023/07/14 06:23:44;;;;;;;67.67;5.10;;;19.90;1.00;;;;;;5056476;28;20487;-79
2023/07/14 06:26:10;;;;;;;72.47;5.57;;;20.00;1.00;;;;;;5038538;28;20496;-79
2023/07/14 06:28:36;;;;;;;69.17;4.87;;;20.10;1.00;;;;;;5056483;28;20186;-79
2023/07/14 06:31:05;;;;;;;69.47;5.50;;;20.10;1.00;;;;;;5056111;28;20463;-79
2023/07/14 06:33:31;;;;;;;71.63;5.90;;;20.10;1.00;;;;;;5054557;28;20184;-79
2023/07/14 06:35:57;;;;;;;67.40;5.50;;;20.30;1.00;;;;;;5054938;28;20412;-79
2023/07/14 06:38:28;;;;;;;71.43;5.23;;;20.40;1.00;;;;;;5055008;28;20502;-79
2023/07/14 06:40:57;;;;;;;76.60;5.30;;;20.60;1.00;;;;;;5054671;28;20190;-79
2023/07/14 06:43:23;;;;;;;71.00;5.90;;;20.50;1.00;;;;;;5054523;28;20503;-78
2023/07/14 06:45:49;;;;;;;71.47;5.30;;;20.60;1.00;;;;;;5054452;28;20438;-78
2023/07/14 06:48:16;;;;;;;67.30;5.27;;;20.70;1.00;;;;;;5055132;28;20846;-79
2023/07/14 06:50:43;;;;;;;70.50;4.90;;;20.90;1.00;;;;;;5055112;28;20459;-76
2023/07/14 06:53:09;;;;;;;67.67;5.27;;;20.90;1.00;;;;;;5054515;28;20411;-80
2023/07/14 06:55:40;;;;;;;68.37;4.80;;;21.00;1.00;;;;;;5036182;28;20456;-75
2023/07/14 06:58:07;;;;;;;70.93;5.47;;;21.10;1.00;;;;;;5054176;28;20469;-74
2023/07/14 07:00:33;;;;;;;69.23;4.87;;;21.20;1.00;;;;;;5054653;28;20485;-79
2023/07/14 07:03:00;;;;;;;68.77;4.90;;;21.00;1.00;;;;;;5054754;28;20379;-77
2023/07/14 07:05:26;;;;;;;68.80;5.13;;;20.80;1.00;;;;;;5054271;28;20379;-79
2023/07/14 07:07:53;;;;;;;68.37;5.00;;;20.90;1.00;;;;;;5054729;28;20415;-79
2023/07/14 07:10:19;;;;;;;70.90;5.20;;;21.00;1.00;;;;;;5054290;28;20166;-77
2023/07/14 07:12:45;;;;;;;69.27;5.70;;;21.00;1.00;;;;;;5036157;28;20488;-78
2023/07/14 07:15:11;;;;;;;73.87;5.03;;;21.10;1.00;;;;;;5054212;28;20399;-79
2023/07/14 07:17:38;;;;;;;67.63;6.17;;;21.10;1.00;;;;;;5054158;28;20956;-78
2023/07/14 07:20:08;;;;;;;68.03;5.40;;;21.20;1.00;;;;;;5054493;28;20175;-79
2023/07/14 07:22:35;;;;;;;68.73;5.27;;;21.40;1.00;;;;;;5054010;28;20479;-79
2023/07/14 07:25:01;;;;;;;70.80;4.77;;;21.50;1.00;;;;;;5054214;28;20441;-78
2023/07/14 07:27:27;;;;;;;67.60;5.57;;;21.60;1.00;;;;;;5057452;28;20399;-79
2023/07/14 07:29:53;;;;;;;67.97;5.20;;;21.60;1.00;;;;;;5060193;28;20172;-79
2023/07/14 07:32:18;;;;;;;69.13;5.90;;;21.70;1.00;;;;;;5061900;28;20763;-79
2023/07/14 07:34:44;;;;;;;68.60;5.37;;;21.80;1.00;;;;;;5059038;28;20164;-79
2023/07/14 07:37:13;;;;;;;70.27;5.43;;;21.90;1.00;;;;;;5058129;28;20215;-79
2023/07/14 07:39:39;;;;;;;68.83;5.57;;;22.00;1.00;;;;;;5059736;28;20185;-79
2023/07/14 07:42:06;;;;;;;69.17;3.77;;;22.10;1.00;;;;;;5040823;28;20802;-79
2023/07/14 07:44:32;;;;;;;67.70;4.20;;;22.10;1.00;;;;;;5059923;28;20911;-79
2023/07/14 07:46:58;;;;;;;68.53;3.13;;;22.10;1.00;;;;;;5061365;28;20420;-79
2023/07/14 07:49:24;;;;;;;69.80;4.70;;;22.10;1.00;;;;;;5062401;28;20429;-79
2023/07/14 07:51:51;;;;;;;66.80;3.57;;;22.10;1.00;;;;;;5065319;28;20180;-79
2023/07/14 07:54:17;;;;;;;70.30;3.87;;;22.20;1.00;;;;;;5063249;28;20170;-79
2023/07/14 07:56:43;;;;;;;67.37;3.80;;;22.30;1.00;;;;;;5059306;28;20894;-79
2023/07/14 07:59:15;;;;;;;66.53;3.70;;;22.50;1.00;;;;;;5171382;22;20257;-80
2023/07/14 08:01:45;;;;;;;66.57;3.53;;;22.60;1.00;;;;;;5118812;28;20434;-80
2023/07/14 08:04:12;;;;;;;69.93;4.93;;;22.60;1.00;;;;;;5100079;28;20400;-80
2023/07/14 08:06:38;;;;;;;68.20;4.03;;;22.70;1.00;;;;;;5100343;28;20787;-80
2023/07/14 08:09:05;;;;;;;69.53;3.60;;;22.80;1.00;;;;;;5103853;28;20420;-80
2023/07/14 08:11:31;;;;;;;68.50;4.30;;;22.80;1.00;;;;;;5079714;28;20167;-80
2023/07/14 08:14:01;;;;;;;69.43;3.90;;;22.80;1.00;;;;;;5098320;28;20397;-80
2023/07/14 08:16:28;;;;;;;76.13;3.73;;;22.80;1.00;;;;;;5098164;28;20431;-80
2023/07/14 08:18:53;;;;;;;71.10;4.20;;;22.80;1.00;;;;;;5097644;28;20421;-79
2023/07/14 08:21:19;;;;;;;78.23;4.50;;;23.00;1.00;;;;;;5079441;28;20420;-80
2023/07/14 08:23:45;;;;;;;71.70;3.87;;;23.20;1.00;;;;;;5097622;28;20159;-80
2023/07/14 08:26:14;;;;;;;69.00;3.80;;;23.40;1.00;;;;;;5097615;28;20900;-80
2023/07/14 08:28:40;;;;;;;66.20;3.10;;;23.30;1.00;;;;;;5079662;28;20187;-80
2023/07/14 08:31:09;;;;;;;68.70;3.57;;;23.20;1.00;;;;;;5097645;28;20803;-80
2023/07/14 08:33:36;;;;;;;67.67;3.90;;;23.10;1.00;;;;;;5097827;28;20220;-80
2023/07/14 08:36:03;;;;;;;67.40;3.27;;;23.30;1.00;;;;;;5098259;28;20493;-80
2023/07/14 08:38:31;;;;;;;70.27;3.27;;;23.40;1.00;;;;;;5099753;28;20447;-80
2023/07/14 08:41:15;;;;;;;69.13;3.20;;;23.40;1.00;;;;;;5080171;28;20437;-80
2023/07/14 08:44:05;;;;;;;68.10;3.27;;;23.50;1.00;;;;;;5098762;28;20393;-80
2023/07/14 08:46:30;;;;;;;71.20;3.97;;;23.40;1.00;;;;;;5099318;28;20385;-80
2023/07/14 08:49:24;;;;;;;70.30;3.80;;;23.50;1.00;;;;;;5098822;28;20413;-81
2023/07/14 08:52:00;;;;;;;70.97;3.70;;;23.50;1.00;;;;;;5098862;28;20155;-80
2023/07/14 08:54:33;;;;;;;68.07;3.50;;;23.40;1.00;;;;;;5098237;28;20875;-80
2023/07/14 08:56:59;;;;;;;67.57;3.33;;;23.30;1.00;;;;;;5098299;28;20385;-80
2023/07/14 08:59:40;;;;;;;67.10;3.40;;;23.40;1.00;;;;;;5098365;28;20851;-81
2023/07/14 09:02:23;;;;;;;67.80;3.07;;;23.50;1.00;;;;;;5098478;28;20204;-81
2023/07/14 09:04:58;;;;;;;71.43;3.50;;;23.50;1.00;;;;;;5079830;28;20397;-80
2023/07/14 09:07:24;;;;;;;73.20;4.03;;;23.60;1.00;;;;;;5097881;28;20413;-80
2023/07/14 09:09:50;;;;;;;71.63;4.60;;;23.70;1.00;;;;;;5079306;28;20409;-80
2023/07/14 09:12:37;;;;;;;68.10;3.50;;;23.80;1.00;;;;;;5079709;28;20428;-80
2023/07/14 09:15:07;;;;;;;68.77;3.30;;;24.00;1.00;;;;;;5097287;28;20151;-80
2023/07/14 09:18:04;;;;;;;68.30;3.67;;;24.10;1.00;;;;;;5097157;28;20398;-80
2023/07/14 09:21:03;;;;;;;69.37;2.93;;;24.10;1.00;;;;;;5078858;28;20459;-80
2023/07/14 09:24:03;;;;;;;68.50;3.10;;;24.40;1.00;;;;;;5097003;28;20908;-80
2023/07/14 09:27:08;;;;;;;69.40;3.53;;;24.50;1.00;;;;;;5078579;28;20437;-80
2023/07/14 09:29:39;;;;;;;70.07;3.73;;;24.40;1.00;;;;;;5034519;28;20595;-80
2023/07/14 09:32:21;;;;;;;68.87;3.50;;;24.40;1.00;;;;;;5088220;28;20398;-80
2023/07/14 09:35:18;;;;;;;67.23;2.90;;;24.70;1.00;;;;;;5078505;28;20396;-80
2023/07/14 09:38:14;;;;;;;68.50;3.33;;;25.00;1.00;;;;;;5078201;28;20940;-80
2023/07/14 09:40:42;;;;;;;70.20;3.30;;;24.90;1.00;;;;;;5078311;28;20441;-80
2023/07/14 09:43:10;;;;;;;69.37;3.67;;;24.60;1.00;;;;;;5096400;28;20417;-80
2023/07/14 09:45:38;;;;;;;70.00;3.40;;;24.40;1.00;;;;;;5096482;28;20489;-80
2023/07/14 09:48:20;;;;;;;67.23;3.27;;;24.40;1.00;;;;;;5096866;28;20424;-81
2023/07/14 09:50:52;;;;;;;68.10;3.23;;;24.40;1.00;;;;;;5097270;28;20403;-80
2023/07/14 09:53:18;;;;;;;68.77;3.63;;;24.90;1.00;;;;;;5096551;28;20996;-80
2023/07/14 09:55:52;;;;;;;69.30;3.67;;;25.20;1.00;;;;;;5096057;28;20435;-80
2023/07/14 09:58:26;;;;;;;67.80;2.50;;;25.40;1.00;;;;;;5095904;28;20566;-80
2023/07/14 10:00:55;;;;;;;68.47;3.70;;;25.60;1.00;;;;;;5096170;28;20524;-80
2023/07/14 10:03:25;;;;;;;70.17;3.37;;;25.80;1.00;;;;;;5096469;28;20537;-80
2023/07/14 10:05:54;;;;;;;68.40;3.93;;;25.80;1.00;;;;;;5095929;28;20407;-80
2023/07/14 10:08:46;;;;;;;71.10;4.03;;;25.90;1.00;;;;;;5097846;28;20430;-80
2023/07/14 10:11:29;;;;;;;68.60;4.87;;;25.70;1.00;;;;;;5088825;28;20406;-79
2023/07/14 10:14:15;;;;;;;74.40;4.23;;;26.00;1.00;;;;;;5077936;28;20548;-79
2023/07/14 10:16:44;;;;;;;70.93;4.50;;;26.10;1.00;;;;;;5077938;28;20477;-79
2023/07/14 10:19:16;;;;;;;68.07;4.43;;;26.30;1.00;;;;;;5095443;28;20946;-80
2023/07/14 10:21:55;;;;;;;68.87;5.80;;;26.50;1.00;;;;;;5096324;28;20505;-80
2023/07/14 10:24:24;;;;;;;72.63;6.00;;;26.70;1.00;;;;;;5077475;28;20389;-80
2023/07/14 10:26:54;;;;;;;69.97;5.83;;;26.80;1.00;;;;;;5095743;28;20407;-80
2023/07/14 10:29:23;;;;;;;70.50;7.40;;;26.90;1.00;;;;;;5095648;28;20425;-80
2023/07/14 10:32:00;;;;;;;70.17;7.27;;;27.10;1.00;;;;;;5077077;28;20463;-80
2023/07/14 10:34:47;;;;;;;73.93;7.63;;;27.10;1.00;;;;;;5095737;28;20481;-80
2023/07/14 10:37:27;;;;;;;70.00;7.53;;;26.90;1.00;;;;;;5096019;28;20386;-80
2023/07/14 10:40:09;;;;;;;71.13;6.47;;;26.50;1.00;;;;;;5077555;28;20527;-80
2023/07/14 10:42:40;;;;;;;69.70;5.90;;;26.40;1.00;;;;;;5078302;28;20417;-80
2023/07/14 10:45:13;;;;;;;69.17;6.87;;;26.40;1.00;;;;;;5095524;28;20382;-80
2023/07/14 10:48:02;;;;;;;70.10;6.80;;;26.40;1.00;;;;;;5077816;28;20811;-81
2023/07/14 10:50:41;;;;;;;70.43;6.50;;;26.40;1.00;;;;;;5096722;28;20443;-80
2023/07/14 10:53:18;;;;;;;69.27;6.00;;;26.30;1.00;;;;;;5080027;28;20742;-81
2023/07/14 10:55:47;;;;;;;73.90;6.17;;;26.00;1.00;;;;;;5097310;28;20398;-81
2023/07/14 10:58:21;;;;;;;69.97;7.20;;;26.40;1.00;;;;;;5078047;28;20544;-81
2023/07/14 11:01:13;;;;;;;73.03;7.87;;;26.90;1.00;;;;;;5078148;28;20475;-81
2023/07/14 11:06:21;;;;;;;71.10;8.30;;;27.70;1.00;;;;;;5016268;28;20522;-81
2023/07/14 11:08:51;;;;;;;70.47;9.37;;;28.30;1.00;;;;;;4987664;28;20429;-81
2023/07/14 11:11:29;;;;;;;72.30;9.50;;;28.70;1.00;;;;;;4979401;28;20913;-81
2023/07/14 11:14:12;;;;;;;72.63;8.47;;;28.70;1.00;;;;;;4998184;28;20741;-81
2023/07/14 11:16:47;;;;;;;70.60;9.60;;;28.70;1.00;;;;;;4998081;28;20401;-81
2023/07/14 11:19:49;;;;;;;71.43;8.67;;;29.00;1.00;;;;;;4999979;28;20917;-81
2023/07/14 11:22:26;;;;;;;70.07;6.83;;;29.40;1.00;;;;;;5003308;28;20436;-81
2023/07/14 11:25:12;;;;;;;70.50;7.20;;;29.40;1.00;;;;;;5000928;28;20485;-81
2023/07/14 11:27:54;;;;;;;69.90;5.50;;;29.60;1.00;;;;;;5000846;28;20444;-81
2023/07/14 11:30:25;;;;;;;72.60;5.93;;;29.90;1.00;;;;;;5001177;28;20422;-81
2023/07/14 11:33:05;;;;;;;69.63;5.60;;;30.10;1.00;;;;;;4984116;28;20429;-81
2023/07/14 11:35:40;;;;;;;69.63;4.43;;;30.00;1.00;;;;;;5000826;28;20413;-81
2023/07/14 11:38:28;;;;;;;68.67;4.63;;;30.40;1.00;;;;;;5000630;28;20452;-81
2023/07/14 11:40:54;;;;;;;70.40;5.00;;;30.10;1.00;;;;;;5346891;22;20479;-81
2023/07/14 11:43:23;;;;;;;73.10;4.90;;;30.10;1.00;;;;;;5193727;22;20573;-81
2023/07/14 11:46:04;;;;;;;70.70;4.03;;;30.60;1.00;;;;;;5102259;28;20768;-81
2023/07/14 11:48:58;;;;;;;73.10;4.33;;;30.70;1.00;;;;;;5111558;28;20405;-81
2023/07/14 11:51:50;;;;;;;69.50;4.13;;;30.70;1.00;;;;;;5092655;28;20404;-81
2023/07/14 11:54:20;;;;;;;70.47;4.07;;;30.10;1.00;;;;;;5082552;28;20401;-81
2023/07/14 11:57:03;;;;;;;69.27;4.53;;;29.70;1.00;;;;;;5100773;28;20389;-81
2023/07/14 11:59:31;;;;;;;71.90;4.20;;;29.40;1.00;;;;;;5081743;28;20453;-81
2023/07/14 12:02:48;;;;;;;71.83;4.50;;;29.30;1.00;;;;;;5099747;28;20486;-80
2023/07/14 12:05:13;;;;;;;69.00;4.20;;;29.50;1.00;;;;;;5075619;28;20409;-80
2023/07/14 12:08:03;;;;;;;70.23;4.30;;;29.70;1.00;;;;;;5082491;28;20772;-80
2023/07/14 12:10:37;;;;;;;70.30;4.70;;;29.70;1.00;;;;;;5082977;28;20171;-81
2023/07/14 12:13:19;;;;;;;70.07;4.00;;;29.80;1.00;;;;;;5082917;28;20908;-81
2023/07/14 12:15:57;;;;;;;69.37;4.17;;;30.20;1.00;;;;;;5082805;28;20954;-81
2023/07/14 12:18:34;;;;;;;68.90;4.37;;;30.50;1.00;;;;;;5101097;28;20439;-81
2023/07/14 12:21:18;;;;;;;69.00;3.60;;;30.50;1.00;;;;;;5081235;28;20452;-80
2023/07/14 12:23:56;;;;;;;69.17;3.47;;;30.70;1.00;;;;;;5098830;28;20397;-80
2023/07/14 12:26:53;;;;;;;70.07;3.53;;;30.60;1.00;;;;;;5098634;28;20370;-80
2023/07/14 12:29:20;;;;;;;69.57;3.40;;;30.50;1.00;;;;;;5058736;28;20949;-80
2023/07/14 12:31:54;;;;;;;69.60;3.60;;;30.30;1.00;;;;;;5097137;28;20416;-80
2023/07/14 12:34:28;;;;;;;71.60;4.20;;;30.00;1.00;;;;;;5062836;28;20912;-80
2023/07/14 12:36:53;;;;;;;68.80;3.20;;;30.10;1.00;;;;;;5096912;28;20440;-80
2023/07/14 12:39:20;;;;;;;68.00;3.20;;;30.50;1.00;;;;;;5097229;28;20476;-80
2023/07/14 12:41:49;;;;;;;68.30;3.70;;;30.90;1.00;;;;;;5098085;28;20225;-80
2023/07/14 12:44:31;;;;;;;70.47;4.17;;;30.50;1.00;;;;;;5097349;28;20901;-80
2023/07/14 12:46:58;;;;;;;69.27;4.23;;;30.70;1.00;;;;;;5097822;28;20865;-80
2023/07/14 12:49:29;;;;;;;70.07;4.00;;;30.70;1.00;;;;;;5097159;28;20791;-80
2023/07/14 12:51:55;;;;;;;69.67;3.80;;;31.20;1.00;;;;;;5097669;28;20373;-80
2023/07/14 12:54:27;;;;;;;69.20;3.90;;;31.00;1.00;;;;;;5080418;28;20420;-80
2023/07/14 12:57:00;;;;;;;71.40;3.23;;;30.60;1.00;;;;;;5080063;28;20174;-80
2023/07/14 12:59:26;;;;;;;68.00;3.10;;;30.10;1.00;;;;;;5097132;28;20967;-80
2023/07/14 13:01:54;;;;;;;67.90;3.47;;;30.10;1.00;;;;;;5097145;28;20405;-80
2023/07/14 13:04:22;;;;;;;68.37;3.40;;;30.20;1.00;;;;;;5097393;28;20426;-80
2023/07/14 13:06:55;;;;;;;70.10;3.50;;;30.80;1.00;;;;;;5097665;28;20756;-80
2023/07/14 13:09:26;;;;;;;69.13;3.07;;;31.20;1.00;;;;;;5097521;28;20437;-80
2023/07/14 13:11:59;;;;;;;67.90;2.97;;;31.10;1.00;;;;;;5097483;28;20401;-80